Portada
METAR-TAF:

METAR-TAF

Aeropuertos :

Aeropuerto de Madrid-Barajas

Madrid, España

latitud: 40-27N, longitud: 003-33W, altitud: 609 m

Observación

El informe se hizo hace 23 minutos, a las 20:00 UTC
Viento 3 kt del norte
Temperatura 6°C
Humedad 93%
Presión 1019 hPa
Visibilidad 10 km o más
sin nubes por debajo de 1500 m y sin presencia de cumulonimbus.

METAR: LEMD 292000Z 35003KT CAVOK 06/05 Q1019 NOSIG

Hora: 21:23 (20:23 UTC)

Pronóstico

El informe se hizo hace 3 horas y 23 minutos, a las 17:00 UTC
Pronóstico válido del 29 a las 18 UTC al 30 a las 24 UTC
Viento 5 kt del norte-noreste
Visibilidad 10 km o más
sin nubes por debajo de 1500 m y sin presencia de cumulonimbus.

TAF: LEMD 291700Z 2918/3024 02005KT CAVOK TX14/3015Z TN03/3006Z

Observaciones y pronósticos meteorológicos de más de 4000 aeropuertos (mensajes METAR y TAF).

Los puntos amarillos y rojos representan las estaciones disponibles.

Ponga el ratón en el punto deseado para ver el nombre de la estación.

Haga clic para ver las observaciones y los pronósticos meteorológicos.

Para cambiar el mapa : haga clic en los botones verdes con una cruz de color negro para hacer un zoom, en el botón verde con un guión para alejar o en las flechas verdes para mapas adyacentes.


METAR-TAF: